sensor_id;sensor_type;location;lat;lon;timestamp;P1;durP1;ratioP1;P2;durP2;ratioP2
11711;SDS011;5912;51.034;6.984;2023-05-07T00:01:35;2.10;;;1.80;;
11711;SDS011;5912;51.034;6.984;2023-05-07T00:04:00;2.72;;;1.67;;
11711;SDS011;5912;51.034;6.984;2023-05-07T00:06:26;2.75;;;1.80;;
11711;SDS011;5912;51.034;6.984;2023-05-07T00:08:53;2.30;;;1.80;;
11711;SDS011;5912;51.034;6.984;2023-05-07T00:11:19;2.25;;;1.80;;
11711;SDS011;5912;51.034;6.984;2023-05-07T00:13:44;2.47;;;1.80;;
11711;SDS011;5912;51.034;6.984;2023-05-07T00:16:10;3.83;;;1.92;;
11711;SDS011;5912;51.034;6.984;2023-05-07T00:18:35;1.80;;;1.70;;
11711;SDS011;5912;51.034;6.984;2023-05-07T00:21:01;3.13;;;1.90;;
11711;SDS011;5912;51.034;6.984;2023-05-07T00:23:26;2.10;;;1.90;;
11711;SDS011;5912;51.034;6.984;2023-05-07T00:25:51;3.10;;;1.92;;
11711;SDS011;5912;51.034;6.984;2023-05-07T00:28:16;3.47;;;2.45;;
11711;SDS011;5912;51.034;6.984;2023-05-07T00:30:42;10.75;;;2.58;;
11711;SDS011;5912;51.034;6.984;2023-05-07T00:33:07;2.63;;;2.08;;
11711;SDS011;5912;51.034;6.984;2023-05-07T00:35:32;4.30;;;2.33;;
11711;SDS011;5912;51.034;6.984;2023-05-07T00:37:58;4.18;;;2.40;;
11711;SDS011;5912;51.034;6.984;2023-05-07T00:40:23;2.78;;;2.30;;
11711;SDS011;5912;51.034;6.984;2023-05-07T00:42:48;2.47;;;2.17;;
11711;SDS011;5912;51.034;6.984;2023-05-07T00:45:15;3.20;;;2.50;;
11711;SDS011;5912;51.034;6.984;2023-05-07T00:47:41;2.40;;;2.15;;
11711;SDS011;5912;51.034;6.984;2023-05-07T00:50:07;2.13;;;2.03;;
11711;SDS011;5912;51.034;6.984;2023-05-07T00:52:33;3.17;;;2.15;;
11711;SDS011;5912;51.034;6.984;2023-05-07T00:55:00;2.45;;;2.05;;
11711;SDS011;5912;51.034;6.984;2023-05-07T00:57:32;2.05;;;1.90;;
11711;SDS011;5912;51.034;6.984;2023-05-07T01:00:01;3.67;;;2.03;;
11711;SDS011;5912;51.034;6.984;2023-05-07T01:02:26;4.28;;;2.17;;
11711;SDS011;5912;51.034;6.984;2023-05-07T01:04:52;5.30;;;1.98;;
11711;SDS011;5912;51.034;6.984;2023-05-07T01:07:17;3.60;;;2.22;;
11711;SDS011;5912;51.034;6.984;2023-05-07T01:09:43;2.60;;;1.77;;
11711;SDS011;5912;51.034;6.984;2023-05-07T01:12:08;2.92;;;2.20;;
11711;SDS011;5912;51.034;6.984;2023-05-07T01:14:34;2.25;;;1.80;;
11711;SDS011;5912;51.034;6.984;2023-05-07T01:16:59;3.88;;;2.17;;
11711;SDS011;5912;51.034;6.984;2023-05-07T01:19:25;2.80;;;2.10;;
11711;SDS011;5912;51.034;6.984;2023-05-07T01:21:53;2.80;;;1.88;;
11711;SDS011;5912;51.034;6.984;2023-05-07T01:24:26;3.08;;;2.22;;
11711;SDS011;5912;51.034;6.984;2023-05-07T01:26:52;2.00;;;1.80;;
11711;SDS011;5912;51.034;6.984;2023-05-07T01:29:17;2.53;;;2.17;;
11711;SDS011;5912;51.034;6.984;2023-05-07T01:31:42;2.72;;;2.03;;
11711;SDS011;5912;51.034;6.984;2023-05-07T01:34:09;2.67;;;2.05;;
11711;SDS011;5912;51.034;6.984;2023-05-07T01:36:38;3.03;;;2.00;;
11711;SDS011;5912;51.034;6.984;2023-05-07T01:39:05;5.18;;;2.30;;
11711;SDS011;5912;51.034;6.984;2023-05-07T01:41:31;3.33;;;2.03;;
11711;SDS011;5912;51.034;6.984;2023-05-07T01:43:56;1.88;;;1.77;;
11711;SDS011;5912;51.034;6.984;2023-05-07T01:46:23;3.20;;;1.98;;
11711;SDS011;5912;51.034;6.984;2023-05-07T01:48:49;3.17;;;2.15;;
11711;SDS011;5912;51.034;6.984;2023-05-07T01:51:15;2.22;;;1.83;;
11711;SDS011;5912;51.034;6.984;2023-05-07T01:53:40;1.83;;;1.73;;
11711;SDS011;5912;51.034;6.984;2023-05-07T01:56:06;1.83;;;1.63;;
11711;SDS011;5912;51.034;6.984;2023-05-07T01:58:32;3.00;;;2.00;;
11711;SDS011;5912;51.034;6.984;2023-05-07T02:00:57;5.03;;;1.90;;
11711;SDS011;5912;51.034;6.984;2023-05-07T02:03:23;1.70;;;1.60;;
11711;SDS011;5912;51.034;6.984;2023-05-07T02:05:48;1.70;;;1.60;;
11711;SDS011;5912;51.034;6.984;2023-05-07T02:08:13;1.55;;;1.45;;
11711;SDS011;5912;51.034;6.984;2023-05-07T02:10:39;2.17;;;1.60;;
11711;SDS011;5912;51.034;6.984;2023-05-07T02:13:04;2.17;;;1.50;;
11711;SDS011;5912;51.034;6.984;2023-05-07T02:15:30;2.58;;;1.85;;
11711;SDS011;5912;51.034;6.984;2023-05-07T02:18:05;2.15;;;1.67;;
11711;SDS011;5912;51.034;6.984;2023-05-07T02:20:32;1.73;;;1.63;;
11711;SDS011;5912;51.034;6.984;2023-05-07T02:22:58;2.08;;;1.88;;
11711;SDS011;5912;51.034;6.984;2023-05-07T02:25:23;1.90;;;1.60;;
11711;SDS011;5912;51.034;6.984;2023-05-07T02:27:49;2.10;;;1.90;;
11711;SDS011;5912;51.034;6.984;2023-05-07T02:30:14;2.78;;;2.00;;
11711;SDS011;5912;51.034;6.984;2023-05-07T02:32:40;2.15;;;1.88;;
11711;SDS011;5912;51.034;6.984;2023-05-07T02:35:05;2.55;;;1.67;;
11711;SDS011;5912;51.034;6.984;2023-05-07T02:37:31;2.65;;;1.90;;
11711;SDS011;5912;51.034;6.984;2023-05-07T02:39:56;2.80;;;1.77;;
11711;SDS011;5912;51.034;6.984;2023-05-07T02:42:22;1.70;;;1.60;;
11711;SDS011;5912;51.034;6.984;2023-05-07T02:44:47;2.33;;;1.77;;
11711;SDS011;5912;51.034;6.984;2023-05-07T02:47:13;2.30;;;2.00;;
11711;SDS011;5912;51.034;6.984;2023-05-07T02:49:40;2.90;;;1.75;;
11711;SDS011;5912;51.034;6.984;2023-05-07T02:52:05;2.83;;;1.90;;
11711;SDS011;5912;51.034;6.984;2023-05-07T02:54:30;2.42;;;1.75;;
11711;SDS011;5912;51.034;6.984;2023-05-07T02:56:56;2.40;;;1.90;;
11711;SDS011;5912;51.034;6.984;2023-05-07T02:59:21;1.80;;;1.70;;
11711;SDS011;5912;51.034;6.984;2023-05-07T03:02:02;2.63;;;1.80;;
11711;SDS011;5912;51.034;6.984;2023-05-07T03:04:27;1.80;;;1.70;;
11711;SDS011;5912;51.034;6.984;2023-05-07T03:06:52;2.95;;;1.70;;
11711;SDS011;5912;51.034;6.984;2023-05-07T03:09:18;2.58;;;1.70;;
11711;SDS011;5912;51.034;6.984;2023-05-07T03:11:43;2.03;;;1.70;;
11711;SDS011;5912;51.034;6.984;2023-05-07T03:14:08;2.38;;;1.70;;
11711;SDS011;5912;51.034;6.984;2023-05-07T03:16:34;3.97;;;1.85;;
11711;SDS011;5912;51.034;6.984;2023-05-07T03:18:59;1.98;;;1.83;;
11711;SDS011;5912;51.034;6.984;2023-05-07T03:21:24;2.03;;;1.80;;
11711;SDS011;5912;51.034;6.984;2023-05-07T03:23:51;2.47;;;1.60;;
11711;SDS011;5912;51.034;6.984;2023-05-07T03:26:16;2.47;;;2.00;;
11711;SDS011;5912;51.034;6.984;2023-05-07T03:28:57;2.67;;;1.90;;
11711;SDS011;5912;51.034;6.984;2023-05-07T03:31:22;2.30;;;2.10;;
11711;SDS011;5912;51.034;6.984;2023-05-07T03:33:51;2.28;;;1.67;;
11711;SDS011;5912;51.034;6.984;2023-05-07T03:36:17;2.20;;;1.90;;
11711;SDS011;5912;51.034;6.984;2023-05-07T03:38:43;3.47;;;2.00;;
11711;SDS011;5912;51.034;6.984;2023-05-07T03:41:08;2.90;;;2.00;;
11711;SDS011;5912;51.034;6.984;2023-05-07T03:43:33;2.47;;;2.28;;
11711;SDS011;5912;51.034;6.984;2023-05-07T03:45:58;2.58;;;1.85;;
11711;SDS011;5912;51.034;6.984;2023-05-07T03:48:24;2.40;;;2.20;;
11711;SDS011;5912;51.034;6.984;2023-05-07T03:50:49;2.88;;;1.88;;
11711;SDS011;5912;51.034;6.984;2023-05-07T03:53:15;2.10;;;1.90;;
11711;SDS011;5912;51.034;6.984;2023-05-07T03:55:40;2.53;;;2.20;;
11711;SDS011;5912;51.034;6.984;2023-05-07T03:58:05;2.63;;;2.30;;
11711;SDS011;5912;51.034;6.984;2023-05-07T04:00:30;3.10;;;1.90;;
11711;SDS011;5912;51.034;6.984;2023-05-07T04:02:58;2.22;;;2.03;;
11711;SDS011;5912;51.034;6.984;2023-05-07T04:05:24;2.13;;;1.92;;
11711;SDS011;5912;51.034;6.984;2023-05-07T04:07:50;2.25;;;1.88;;
11711;SDS011;5912;51.034;6.984;2023-05-07T04:10:16;3.47;;;1.88;;
11711;SDS011;5912;51.034;6.984;2023-05-07T04:12:41;2.10;;;1.90;;
11711;SDS011;5912;51.034;6.984;2023-05-07T04:15:06;2.22;;;2.00;;
11711;SDS011;5912;51.034;6.984;2023-05-07T04:17:32;4.75;;;2.20;;
11711;SDS011;5912;51.034;6.984;2023-05-07T04:19:57;2.28;;;1.83;;
11711;SDS011;5912;51.034;6.984;2023-05-07T04:22:23;2.28;;;2.08;;
11711;SDS011;5912;51.034;6.984;2023-05-07T04:24:48;4.15;;;1.88;;
11711;SDS011;5912;51.034;6.984;2023-05-07T04:27:13;2.05;;;1.85;;
11711;SDS011;5912;51.034;6.984;2023-05-07T04:29:38;3.22;;;2.00;;
11711;SDS011;5912;51.034;6.984;2023-05-07T04:32:07;3.17;;;1.90;;
11711;SDS011;5912;51.034;6.984;2023-05-07T04:34:33;2.30;;;2.00;;
11711;SDS011;5912;51.034;6.984;2023-05-07T04:36:59;1.67;;;1.52;;
11711;SDS011;5912;51.034;6.984;2023-05-07T04:39:24;2.20;;;1.75;;
11711;SDS011;5912;51.034;6.984;2023-05-07T04:41:49;3.60;;;1.90;;
11711;SDS011;5912;51.034;6.984;2023-05-07T04:44:15;2.10;;;1.90;;
11711;SDS011;5912;51.034;6.984;2023-05-07T04:46:40;2.78;;;1.80;;
11711;SDS011;5912;51.034;6.984;2023-05-07T04:49:05;2.05;;;1.70;;
11711;SDS011;5912;51.034;6.984;2023-05-07T04:51:30;3.38;;;1.88;;
11711;SDS011;5912;51.034;6.984;2023-05-07T04:53:57;2.42;;;1.83;;
11711;SDS011;5912;51.034;6.984;2023-05-07T04:56:22;1.55;;;1.45;;
11711;SDS011;5912;51.034;6.984;2023-05-07T04:58:48;1.55;;;1.45;;
11711;SDS011;5912;51.034;6.984;2023-05-07T05:01:13;1.30;;;1.20;;
11711;SDS011;5912;51.034;6.984;2023-05-07T05:03:38;2.63;;;1.73;;
11711;SDS011;5912;51.034;6.984;2023-05-07T05:06:04;2.08;;;1.80;;
11711;SDS011;5912;51.034;6.984;2023-05-07T05:08:30;4.72;;;1.88;;
11711;SDS011;5912;51.034;6.984;2023-05-07T05:10:56;2.17;;;1.70;;
11711;SDS011;5912;51.034;6.984;2023-05-07T05:13:21;1.88;;;1.60;;
11711;SDS011;5912;51.034;6.984;2023-05-07T05:15:46;2.63;;;1.80;;
11711;SDS011;5912;51.034;6.984;2023-05-07T05:18:12;2.08;;;1.80;;
11711;SDS011;5912;51.034;6.984;2023-05-07T05:20:37;1.88;;;1.40;;
11711;SDS011;5912;51.034;6.984;2023-05-07T05:23:02;1.73;;;1.63;;
11711;SDS011;5912;51.034;6.984;2023-05-07T05:25:28;1.60;;;1.42;;
11711;SDS011;5912;51.034;6.984;2023-05-07T05:27:53;1.80;;;1.50;;
11711;SDS011;5912;51.034;6.984;2023-05-07T05:30:18;2.20;;;1.50;;
11711;SDS011;5912;51.034;6.984;2023-05-07T05:32:44;1.45;;;1.35;;
11711;SDS011;5912;51.034;6.984;2023-05-07T05:35:09;2.00;;;1.42;;
11711;SDS011;5912;51.034;6.984;2023-05-07T05:37:34;2.15;;;1.20;;
11711;SDS011;5912;51.034;6.984;2023-05-07T05:40:00;1.95;;;1.42;;
11711;SDS011;5912;51.034;6.984;2023-05-07T05:42:25;1.92;;;1.42;;
11711;SDS011;5912;51.034;6.984;2023-05-07T05:44:51;3.03;;;1.42;;
11711;SDS011;5912;51.034;6.984;2023-05-07T05:47:16;1.80;;;1.52;;
11711;SDS011;5912;51.034;6.984;2023-05-07T05:49:41;2.30;;;1.48;;
11711;SDS011;5912;51.034;6.984;2023-05-07T05:52:08;1.52;;;1.35;;
11711;SDS011;5912;51.034;6.984;2023-05-07T05:54:33;1.13;;;1.05;;
11711;SDS011;5912;51.034;6.984;2023-05-07T05:56:59;1.40;;;1.30;;
11711;SDS011;5912;51.034;6.984;2023-05-07T05:59:24;1.50;;;1.20;;
11711;SDS011;5912;51.034;6.984;2023-05-07T06:01:50;1.85;;;1.27;;
11711;SDS011;5912;51.034;6.984;2023-05-07T06:04:15;2.25;;;1.35;;
11711;SDS011;5912;51.034;6.984;2023-05-07T06:06:41;1.25;;;1.15;;
11711;SDS011;5912;51.034;6.984;2023-05-07T06:09:06;1.35;;;1.20;;
11711;SDS011;5912;51.034;6.984;2023-05-07T06:11:31;2.42;;;1.33;;
11711;SDS011;5912;51.034;6.984;2023-05-07T06:13:57;1.17;;;1.08;;
11711;SDS011;5912;51.034;6.984;2023-05-07T06:16:24;2.05;;;1.20;;
11711;SDS011;5912;51.034;6.984;2023-05-07T06:18:49;2.25;;;1.13;;
11711;SDS011;5912;51.034;6.984;2023-05-07T06:21:15;1.38;;;1.27;;
11711;SDS011;5912;51.034;6.984;2023-05-07T06:23:40;1.27;;;1.17;;
11711;SDS011;5912;51.034;6.984;2023-05-07T06:26:06;1.75;;;1.30;;
11711;SDS011;5912;51.034;6.984;2023-05-07T06:28:31;1.52;;;1.20;;
11711;SDS011;5912;51.034;6.984;2023-05-07T06:31:10;1.70;;;1.30;;
11711;SDS011;5912;51.034;6.984;2023-05-07T06:33:39;1.40;;;1.30;;
11711;SDS011;5912;51.034;6.984;2023-05-07T06:36:05;1.33;;;1.23;;
11711;SDS011;5912;51.034;6.984;2023-05-07T06:38:31;1.98;;;1.40;;
11711;SDS011;5912;51.034;6.984;2023-05-07T06:40:56;1.20;;;1.10;;
11711;SDS011;5912;51.034;6.984;2023-05-07T06:43:22;2.25;;;1.25;;
11711;SDS011;5912;51.034;6.984;2023-05-07T06:45:47;1.38;;;1.25;;
11711;SDS011;5912;51.034;6.984;2023-05-07T06:48:12;2.58;;;1.30;;
11711;SDS011;5912;51.034;6.984;2023-05-07T06:50:38;1.73;;;1.20;;
11711;SDS011;5912;51.034;6.984;2023-05-07T06:53:03;1.40;;;1.08;;
11711;SDS011;5912;51.034;6.984;2023-05-07T06:55:28;2.03;;;1.45;;
11711;SDS011;5912;51.034;6.984;2023-05-07T06:57:53;1.63;;;1.30;;
11711;SDS011;5912;51.034;6.984;2023-05-07T07:00:19;2.10;;;1.20;;
11711;SDS011;5912;51.034;6.984;2023-05-07T07:02:44;1.90;;;1.38;;
11711;SDS011;5912;51.034;6.984;2023-05-07T07:05:10;3.28;;;1.50;;
11711;SDS011;5912;51.034;6.984;2023-05-07T07:07:35;3.58;;;1.20;;
11711;SDS011;5912;51.034;6.984;2023-05-07T07:10:01;1.70;;;1.20;;
11711;SDS011;5912;51.034;6.984;2023-05-07T07:12:26;1.45;;;0.88;;
11711;SDS011;5912;51.034;6.984;2023-05-07T07:14:53;1.08;;;1.00;;
11711;SDS011;5912;51.034;6.984;2023-05-07T07:17:19;2.08;;;1.02;;
11711;SDS011;5912;51.034;6.984;2023-05-07T07:19:44;1.38;;;1.17;;
11711;SDS011;5912;51.034;6.984;2023-05-07T07:22:09;2.00;;;1.02;;
11711;SDS011;5912;51.034;6.984;2023-05-07T07:24:35;1.58;;;1.13;;
11711;SDS011;5912;51.034;6.984;2023-05-07T07:27:00;1.05;;;0.80;;
11711;SDS011;5912;51.034;6.984;2023-05-07T07:29:25;1.08;;;0.98;;
11711;SDS011;5912;51.034;6.984;2023-05-07T07:31:51;1.58;;;1.02;;
11711;SDS011;5912;51.034;6.984;2023-05-07T07:34:17;1.17;;;0.93;;
11711;SDS011;5912;51.034;6.984;2023-05-07T07:36:42;1.55;;;1.30;;
11711;SDS011;5912;51.034;6.984;2023-05-07T07:39:07;1.77;;;1.02;;
11711;SDS011;5912;51.034;6.984;2023-05-07T07:41:33;1.90;;;0.90;;
11711;SDS011;5912;51.034;6.984;2023-05-07T07:43:58;1.90;;;1.00;;
11711;SDS011;5912;51.034;6.984;2023-05-07T07:46:23;1.67;;;0.98;;
11711;SDS011;5912;51.034;6.984;2023-05-07T07:48:49;1.75;;;1.02;;
11711;SDS011;5912;51.034;6.984;2023-05-07T07:51:14;1.85;;;0.98;;
11711;SDS011;5912;51.034;6.984;2023-05-07T07:53:40;1.88;;;0.70;;
11711;SDS011;5912;51.034;6.984;2023-05-07T07:56:06;1.00;;;0.90;;
11711;SDS011;5912;51.034;6.984;2023-05-07T07:58:31;0.80;;;0.60;;
11711;SDS011;5912;51.034;6.984;2023-05-07T08:00:56;0.75;;;0.70;;
11711;SDS011;5912;51.034;6.984;2023-05-07T08:03:22;1.35;;;0.90;;
11711;SDS011;5912;51.034;6.984;2023-05-07T08:05:47;1.08;;;0.90;;
11711;SDS011;5912;51.034;6.984;2023-05-07T08:08:14;1.98;;;0.88;;
11711;SDS011;5912;51.034;6.984;2023-05-07T08:10:40;1.35;;;1.17;;
11711;SDS011;5912;51.034;6.984;2023-05-07T08:13:05;1.83;;;1.08;;
11711;SDS011;5912;51.034;6.984;2023-05-07T08:15:31;1.33;;;0.90;;
11711;SDS011;5912;51.034;6.984;2023-05-07T08:17:56;1.65;;;1.20;;
11711;SDS011;5912;51.034;6.984;2023-05-07T08:20:25;2.63;;;0.80;;
11711;SDS011;5912;51.034;6.984;2023-05-07T08:22:51;1.05;;;0.93;;
11711;SDS011;5912;51.034;6.984;2023-05-07T08:25:16;1.00;;;0.85;;
11711;SDS011;5912;51.034;6.984;2023-05-07T08:27:41;1.17;;;1.00;;
11711;SDS011;5912;51.034;6.984;2023-05-07T08:30:07;1.33;;;0.98;;
11711;SDS011;5912;51.034;6.984;2023-05-07T08:32:33;1.50;;;1.02;;
11711;SDS011;5912;51.034;6.984;2023-05-07T08:34:58;1.20;;;1.00;;
11711;SDS011;5912;51.034;6.984;2023-05-07T08:37:23;1.52;;;1.15;;
11711;SDS011;5912;51.034;6.984;2023-05-07T08:39:49;1.48;;;1.00;;
11711;SDS011;5912;51.034;6.984;2023-05-07T08:42:15;1.58;;;1.05;;
11711;SDS011;5912;51.034;6.984;2023-05-07T08:44:41;0.80;;;0.80;;
11711;SDS011;5912;51.034;6.984;2023-05-07T08:47:13;2.13;;;0.98;;
11711;SDS011;5912;51.034;6.984;2023-05-07T08:49:39;1.15;;;1.00;;
11711;SDS011;5912;51.034;6.984;2023-05-07T08:52:05;1.85;;;0.90;;
11711;SDS011;5912;51.034;6.984;2023-05-07T08:54:30;2.03;;;1.48;;
11711;SDS011;5912;51.034;6.984;2023-05-07T08:56:56;1.15;;;1.00;;
11711;SDS011;5912;51.034;6.984;2023-05-07T08:59:21;1.90;;;1.02;;
11711;SDS011;5912;51.034;6.984;2023-05-07T09:01:47;1.10;;;0.95;;
11711;SDS011;5912;51.034;6.984;2023-05-07T09:04:13;1.20;;;0.90;;
11711;SDS011;5912;51.034;6.984;2023-05-07T09:06:38;2.38;;;1.08;;
11711;SDS011;5912;51.034;6.984;2023-05-07T09:09:07;1.08;;;0.82;;
11711;SDS011;5912;51.034;6.984;2023-05-07T09:11:32;3.15;;;0.98;;
11711;SDS011;5912;51.034;6.984;2023-05-07T09:13:58;2.60;;;1.10;;
11711;SDS011;5912;51.034;6.984;2023-05-07T09:16:28;1.55;;;1.02;;
11711;SDS011;5912;51.034;6.984;2023-05-07T09:18:57;1.92;;;1.00;;
11711;SDS011;5912;51.034;6.984;2023-05-07T09:21:23;1.13;;;0.80;;
11711;SDS011;5912;51.034;6.984;2023-05-07T09:23:52;3.47;;;1.52;;
11711;SDS011;5912;51.034;6.984;2023-05-07T09:26:23;1.65;;;0.75;;
11711;SDS011;5912;51.034;6.984;2023-05-07T09:28:49;1.23;;;0.90;;
11711;SDS011;5912;51.034;6.984;2023-05-07T09:31:14;1.38;;;0.90;;
11711;SDS011;5912;51.034;6.984;2023-05-07T09:33:40;1.10;;;0.90;;
11711;SDS011;5912;51.034;6.984;2023-05-07T09:36:05;2.67;;;1.50;;
11711;SDS011;5912;51.034;6.984;2023-05-07T09:38:32;4.22;;;1.40;;
11711;SDS011;5912;51.034;6.984;2023-05-07T09:41:04;1.52;;;0.82;;
11711;SDS011;5912;51.034;6.984;2023-05-07T09:43:32;1.20;;;0.80;;
11711;SDS011;5912;51.034;6.984;2023-05-07T09:46:00;0.90;;;0.80;;
11711;SDS011;5912;51.034;6.984;2023-05-07T09:48:28;0.70;;;0.70;;
11711;SDS011;5912;51.034;6.984;2023-05-07T09:50:55;2.33;;;0.90;;
11711;SDS011;5912;51.034;6.984;2023-05-07T09:53:23;1.17;;;0.95;;
11711;SDS011;5912;51.034;6.984;2023-05-07T09:55:49;1.08;;;0.68;;
11711;SDS011;5912;51.034;6.984;2023-05-07T09:58:16;2.20;;;0.90;;
11711;SDS011;5912;51.034;6.984;2023-05-07T10:00:43;1.30;;;1.20;;
11711;SDS011;5912;51.034;6.984;2023-05-07T10:03:10;2.45;;;0.65;;
11711;SDS011;5912;51.034;6.984;2023-05-07T10:05:36;2.38;;;0.93;;
11711;SDS011;5912;51.034;6.984;2023-05-07T10:08:02;1.83;;;0.93;;
11711;SDS011;5912;51.034;6.984;2023-05-07T10:10:28;1.05;;;0.90;;
11711;SDS011;5912;51.034;6.984;2023-05-07T10:12:54;1.30;;;0.80;;
11711;SDS011;5912;51.034;6.984;2023-05-07T10:15:20;1.08;;;0.80;;
11711;SDS011;5912;51.034;6.984;2023-05-07T10:17:46;2.05;;;0.60;;
11711;SDS011;5912;51.034;6.984;2023-05-07T10:20:13;0.77;;;0.70;;
11711;SDS011;5912;51.034;6.984;2023-05-07T10:22:41;3.10;;;0.82;;
11711;SDS011;5912;51.034;6.984;2023-05-07T10:25:09;1.95;;;0.75;;
11711;SDS011;5912;51.034;6.984;2023-05-07T10:27:41;1.55;;;0.88;;
11711;SDS011;5912;51.034;6.984;2023-05-07T10:30:32;1.77;;;1.00;;
11711;SDS011;5912;51.034;6.984;2023-05-07T10:33:03;3.42;;;0.82;;
11711;SDS011;5912;51.034;6.984;2023-05-07T10:35:32;4.78;;;0.93;;
11711;SDS011;5912;51.034;6.984;2023-05-07T10:38:04;1.25;;;0.90;;
11711;SDS011;5912;51.034;6.984;2023-05-07T10:40:30;0.95;;;0.70;;
11711;SDS011;5912;51.034;6.984;2023-05-07T10:42:56;2.92;;;0.90;;
11711;SDS011;5912;51.034;6.984;2023-05-07T10:45:24;1.35;;;0.82;;
11711;SDS011;5912;51.034;6.984;2023-05-07T10:50:38;0.82;;;0.80;;
11711;SDS011;5912;51.034;6.984;2023-05-07T10:55:43;4.18;;;0.90;;
11711;SDS011;5912;51.034;6.984;2023-05-07T10:58:26;1.00;;;0.70;;
11711;SDS011;5912;51.034;6.984;2023-05-07T11:01:02;0.60;;;0.60;;
11711;SDS011;5912;51.034;6.984;2023-05-07T11:03:28;1.30;;;0.82;;
11711;SDS011;5912;51.034;6.984;2023-05-07T11:11:16;0.98;;;0.60;;
11711;SDS011;5912;51.034;6.984;2023-05-07T11:16:25;1.67;;;0.80;;
11711;SDS011;5912;51.034;6.984;2023-05-07T11:18:53;0.80;;;0.57;;
11711;SDS011;5912;51.034;6.984;2023-05-07T11:21:32;0.70;;;0.65;;
11711;SDS011;5912;51.034;6.984;2023-05-07T11:24:01;0.65;;;0.60;;
11711;SDS011;5912;51.034;6.984;2023-05-07T11:26:28;1.10;;;0.90;;
11711;SDS011;5912;51.034;6.984;2023-05-07T11:29:10;1.15;;;0.75;;
11711;SDS011;5912;51.034;6.984;2023-05-07T11:31:39;0.73;;;0.70;;
11711;SDS011;5912;51.034;6.984;2023-05-07T11:34:04;1.98;;;0.80;;
11711;SDS011;5912;51.034;6.984;2023-05-07T11:36:31;0.95;;;0.88;;
11711;SDS011;5912;51.034;6.984;2023-05-07T11:38:57;0.45;;;0.45;;
11711;SDS011;5912;51.034;6.984;2023-05-07T11:41:22;1.33;;;1.08;;
11711;SDS011;5912;51.034;6.984;2023-05-07T11:43:57;0.90;;;0.80;;
11711;SDS011;5912;51.034;6.984;2023-05-07T11:46:23;0.88;;;0.63;;
11711;SDS011;5912;51.034;6.984;2023-05-07T11:48:48;1.58;;;0.80;;
11711;SDS011;5912;51.034;6.984;2023-05-07T11:51:16;1.17;;;0.70;;
11711;SDS011;5912;51.034;6.984;2023-05-07T11:53:44;0.80;;;0.70;;
11711;SDS011;5912;51.034;6.984;2023-05-07T11:56:11;1.85;;;0.70;;
11711;SDS011;5912;51.034;6.984;2023-05-07T11:58:41;0.60;;;0.60;;
11711;SDS011;5912;51.034;6.984;2023-05-07T12:01:07;1.45;;;0.80;;
11711;SDS011;5912;51.034;6.984;2023-05-07T12:03:34;1.80;;;0.90;;
11711;SDS011;5912;51.034;6.984;2023-05-07T12:06:00;1.33;;;0.80;;
11711;SDS011;5912;51.034;6.984;2023-05-07T12:08:25;1.00;;;0.80;;
11711;SDS011;5912;51.034;6.984;2023-05-07T12:10:50;1.25;;;0.73;;
11711;SDS011;5912;51.034;6.984;2023-05-07T12:13:17;1.23;;;0.80;;
11711;SDS011;5912;51.034;6.984;2023-05-07T12:15:43;1.38;;;0.80;;
11711;SDS011;5912;51.034;6.984;2023-05-07T12:18:08;1.02;;;0.75;;
11711;SDS011;5912;51.034;6.984;2023-05-07T12:20:35;1.20;;;0.70;;
11711;SDS011;5912;51.034;6.984;2023-05-07T12:23:01;1.23;;;0.60;;
11711;SDS011;5912;51.034;6.984;2023-05-07T12:25:30;0.70;;;0.70;;
11711;SDS011;5912;51.034;6.984;2023-05-07T12:27:56;1.55;;;0.85;;
11711;SDS011;5912;51.034;6.984;2023-05-07T12:30:23;1.02;;;0.65;;
11711;SDS011;5912;51.034;6.984;2023-05-07T12:32:52;0.73;;;0.65;;
11711;SDS011;5912;51.034;6.984;2023-05-07T12:35:27;1.65;;;0.85;;
11711;SDS011;5912;51.034;6.984;2023-05-07T12:37:56;1.25;;;0.73;;
11711;SDS011;5912;51.034;6.984;2023-05-07T12:40:39;0.88;;;0.70;;
11711;SDS011;5912;51.034;6.984;2023-05-07T12:43:05;1.50;;;0.88;;
11711;SDS011;5912;51.034;6.984;2023-05-07T12:45:31;0.70;;;0.60;;
11711;SDS011;5912;51.034;6.984;2023-05-07T12:47:57;1.25;;;0.82;;
11711;SDS011;5912;51.034;6.984;2023-05-07T12:50:30;0.90;;;0.70;;
11711;SDS011;5912;51.034;6.984;2023-05-07T12:52:56;0.82;;;0.65;;
11711;SDS011;5912;51.034;6.984;2023-05-07T12:55:22;0.70;;;0.60;;
11711;SDS011;5912;51.034;6.984;2023-05-07T12:57:48;0.75;;;0.55;;
11711;SDS011;5912;51.034;6.984;2023-05-07T13:00:15;0.80;;;0.60;;
11711;SDS011;5912;51.034;6.984;2023-05-07T13:02:41;0.75;;;0.75;;
11711;SDS011;5912;51.034;6.984;2023-05-07T13:05:11;0.77;;;0.70;;
11711;SDS011;5912;51.034;6.984;2023-05-07T13:07:37;1.13;;;0.85;;
11711;SDS011;5912;51.034;6.984;2023-05-07T13:10:02;0.85;;;0.80;;
11711;SDS011;5912;51.034;6.984;2023-05-07T13:12:28;0.77;;;0.70;;
11711;SDS011;5912;51.034;6.984;2023-05-07T13:14:54;1.02;;;0.88;;
11711;SDS011;5912;51.034;6.984;2023-05-07T13:17:19;1.40;;;0.80;;
11711;SDS011;5912;51.034;6.984;2023-05-07T13:19:45;1.10;;;0.90;;
11711;SDS011;5912;51.034;6.984;2023-05-07T13:22:10;0.90;;;0.80;;
11711;SDS011;5912;51.034;6.984;2023-05-07T13:24:35;1.15;;;0.82;;
11711;SDS011;5912;51.034;6.984;2023-05-07T13:27:01;0.93;;;0.80;;
11711;SDS011;5912;51.034;6.984;2023-05-07T13:29:26;1.15;;;0.80;;
11711;SDS011;5912;51.034;6.984;2023-05-07T13:31:56;0.75;;;0.73;;
11711;SDS011;5912;51.034;6.984;2023-05-07T13:34:22;0.65;;;0.65;;
11711;SDS011;5912;51.034;6.984;2023-05-07T13:36:47;1.10;;;1.00;;
11711;SDS011;5912;51.034;6.984;2023-05-07T13:39:12;0.93;;;0.80;;
11711;SDS011;5912;51.034;6.984;2023-05-07T13:41:38;1.20;;;0.77;;
11711;SDS011;5912;51.034;6.984;2023-05-07T13:44:03;1.45;;;0.95;;
11711;SDS011;5912;51.034;6.984;2023-05-07T13:46:29;1.10;;;1.00;;
11711;SDS011;5912;51.034;6.984;2023-05-07T13:48:55;1.25;;;1.13;;
11711;SDS011;5912;51.034;6.984;2023-05-07T13:51:20;1.67;;;1.05;;
11711;SDS011;5912;51.034;6.984;2023-05-07T13:53:46;0.80;;;0.80;;
11711;SDS011;5912;51.034;6.984;2023-05-07T13:56:11;1.30;;;1.10;;
11711;SDS011;5912;51.034;6.984;2023-05-07T13:58:37;1.45;;;1.10;;
11711;SDS011;5912;51.034;6.984;2023-05-07T14:01:02;2.05;;;1.13;;
11711;SDS011;5912;51.034;6.984;2023-05-07T14:03:27;2.20;;;1.00;;
11711;SDS011;5912;51.034;6.984;2023-05-07T14:05:53;1.27;;;1.10;;
11711;SDS011;5912;51.034;6.984;2023-05-07T14:08:18;1.33;;;0.95;;
11711;SDS011;5912;51.034;6.984;2023-05-07T14:10:45;1.42;;;1.15;;
11711;SDS011;5912;51.034;6.984;2023-05-07T14:13:11;1.20;;;1.10;;
11711;SDS011;5912;51.034;6.984;2023-05-07T14:15:36;1.77;;;1.15;;
11711;SDS011;5912;51.034;6.984;2023-05-07T14:18:02;1.23;;;1.13;;
11711;SDS011;5912;51.034;6.984;2023-05-07T14:20:28;2.85;;;1.08;;
11711;SDS011;5912;51.034;6.984;2023-05-07T14:22:53;1.30;;;1.10;;
11711;SDS011;5912;51.034;6.984;2023-05-07T14:25:18;1.48;;;1.15;;
11711;SDS011;5912;51.034;6.984;2023-05-07T14:27:44;1.90;;;1.70;;
11711;SDS011;5912;51.034;6.984;2023-05-07T14:30:09;1.92;;;1.60;;
11711;SDS011;5912;51.034;6.984;2023-05-07T14:32:35;1.63;;;1.50;;
11711;SDS011;5912;51.034;6.984;2023-05-07T14:35:00;1.25;;;1.10;;
11711;SDS011;5912;51.034;6.984;2023-05-07T14:37:26;1.48;;;1.00;;
11711;SDS011;5912;51.034;6.984;2023-05-07T14:39:52;3.20;;;1.48;;
11711;SDS011;5912;51.034;6.984;2023-05-07T14:42:17;3.53;;;1.70;;
11711;SDS011;5912;51.034;6.984;2023-05-07T14:44:42;2.13;;;1.77;;
11711;SDS011;5912;51.034;6.984;2023-05-07T14:47:09;3.97;;;2.08;;
11711;SDS011;5912;51.034;6.984;2023-05-07T14:49:35;3.30;;;2.10;;
11711;SDS011;5912;51.034;6.984;2023-05-07T14:52:00;1.63;;;1.30;;
11711;SDS011;5912;51.034;6.984;2023-05-07T14:54:26;2.08;;;1.40;;
11711;SDS011;5912;51.034;6.984;2023-05-07T14:56:51;4.45;;;1.40;;
11711;SDS011;5912;51.034;6.984;2023-05-07T14:59:16;1.55;;;1.40;;
11711;SDS011;5912;51.034;6.984;2023-05-07T15:01:45;1.35;;;1.25;;
11711;SDS011;5912;51.034;6.984;2023-05-07T15:04:11;6.90;;;1.50;;
11711;SDS011;5912;51.034;6.984;2023-05-07T15:06:37;1.50;;;1.40;;
11711;SDS011;5912;51.034;6.984;2023-05-07T15:09:02;1.85;;;1.20;;